createdAt,value
2019-05-09T00:03:03.598Z,88.00
2019-05-09T00:07:20.366Z,88.50
2019-05-09T00:11:37.084Z,89.10
2019-05-09T00:15:54.158Z,89.40
2019-05-09T00:20:25.495Z,89.30
2019-05-09T00:24:42.055Z,89.90
2019-05-09T00:29:03.785Z,90.30
2019-05-09T00:33:23.566Z,90.60
2019-05-09T00:37:53.847Z,90.80
2019-05-09T00:42:10.346Z,91.10
2019-05-09T00:46:28.788Z,91.20
2019-05-09T00:50:45.342Z,91.30
2019-05-09T00:55:04.313Z,91.50
2019-05-09T00:59:20.821Z,91.60
2019-05-09T01:03:37.448Z,91.80
2019-05-09T01:07:53.973Z,92.20
2019-05-09T01:12:10.483Z,92.30
2019-05-09T01:16:27.021Z,92.50
2019-05-09T01:20:44.116Z,92.30
2019-05-09T01:25:01.177Z,92.30
2019-05-09T01:29:18.209Z,92.40
2019-05-09T01:33:53.459Z,92.40
2019-05-09T01:38:10.187Z,92.30
2019-05-09T01:42:26.860Z,92.40
2019-05-09T01:46:43.668Z,92.50
2019-05-09T01:51:00.357Z,92.40
2019-05-09T01:55:17.095Z,92.30
2019-05-09T01:59:34.248Z,92.10
2019-05-09T02:03:50.946Z,91.90
2019-05-09T02:08:07.603Z,91.40
2019-05-09T02:12:24.664Z,91.30
2019-05-09T02:16:43.207Z,90.90
2019-05-09T02:20:59.733Z,90.80
2019-05-09T02:25:16.485Z,90.90
2019-05-09T02:29:33.755Z,90.90
2019-05-09T02:33:50.476Z,91.10
2019-05-09T02:38:09.461Z,91.40
2019-05-09T02:42:27.313Z,90.80
2019-05-09T02:46:58.906Z,90.80
2019-05-09T02:51:18.206Z,90.80
2019-05-09T02:55:34.066Z,90.60
2019-05-09T02:59:53.539Z,90.50
2019-05-09T03:04:10.242Z,90.30
2019-05-09T03:08:29.529Z,90.20
2019-05-09T03:12:49.783Z,90.10
2019-05-09T03:17:04.021Z,88.90
2019-05-09T03:21:31.621Z,89.10
2019-05-09T03:25:48.574Z,88.30
2019-05-09T03:30:11.921Z,88.30
2019-05-09T03:34:29.795Z,88.20
2019-05-09T03:38:47.450Z,87.60
2019-05-09T03:43:05.137Z,87.10
2019-05-09T03:47:31.406Z,87.00
2019-05-09T03:51:48.370Z,87.10
2019-05-09T03:56:07.908Z,87.60
2019-05-09T04:00:24.682Z,88.00
2019-05-09T04:04:41.252Z,88.60
2019-05-09T04:08:58.509Z,88.50
2019-05-09T04:13:17.875Z,88.80
2019-05-09T04:17:47.530Z,88.70
2019-05-09T04:22:04.514Z,88.60
2019-05-09T04:26:30.408Z,89.50
2019-05-09T04:30:47.756Z,89.90
2019-05-09T04:35:05.216Z,89.50
2019-05-09T04:39:23.865Z,89.70
2019-05-09T04:43:42.568Z,89.50
2019-05-09T04:47:59.065Z,89.30
2019-05-09T04:52:17.910Z,89.70
2019-05-09T04:56:39.049Z,89.10
2019-05-09T05:01:07.571Z,88.70
2019-05-09T05:05:24.077Z,88.90
2019-05-09T05:09:41.043Z,89.50
2019-05-09T05:13:58.697Z,88.80
2019-05-09T05:18:17.382Z,89.10
2019-05-09T05:22:35.852Z,88.30
2019-05-09T05:26:52.397Z,88.40
2019-05-09T05:31:08.882Z,88.70
2019-05-09T05:35:28.471Z,87.60
2019-05-09T05:39:45.123Z,87.00
2019-05-09T05:44:01.626Z,86.90
2019-05-09T05:48:20.777Z,87.00
2019-05-09T05:52:37.650Z,86.80
2019-05-09T05:56:54.267Z,86.30
2019-05-09T06:01:10.843Z,85.70
2019-05-09T06:05:27.919Z,84.10
2019-05-09T06:09:44.504Z,83.00
2019-05-09T06:14:08.545Z,82.40
2019-05-09T06:18:20.084Z,81.10
2019-05-09T06:22:38.205Z,78.50
2019-05-09T06:26:54.979Z,78.60
2019-05-09T06:31:12.032Z,78.80
2019-05-09T06:35:28.535Z,77.20
2019-05-09T06:39:45.212Z,76.60
2019-05-09T06:44:18.200Z,74.60
2019-05-09T06:48:34.363Z,75.10
2019-05-09T06:52:50.878Z,74.10
2019-05-09T06:57:08.078Z,71.90
2019-05-09T07:01:29.753Z,74.30
2019-05-09T07:05:52.120Z,73.60
2019-05-09T07:10:10.105Z,74.50
2019-05-09T07:14:31.906Z,75.10
2019-05-09T07:18:45.809Z,75.20
2019-05-09T07:23:02.615Z,75.30
2019-05-09T07:27:19.155Z,75.10
2019-05-09T07:31:40.469Z,73.30
2019-05-09T07:35:58.082Z,72.20
2019-05-09T07:40:17.809Z,69.60
2019-05-09T07:44:48.012Z,65.10
2019-05-09T07:48:54.082Z,65.20
2019-05-09T07:53:11.568Z,62.80
2019-05-09T07:57:28.654Z,65.40
2019-05-09T08:01:45.216Z,65.90
2019-05-09T08:06:01.858Z,66.60
2019-05-09T08:10:18.373Z,67.00
2019-05-09T08:14:37.534Z,66.30
2019-05-09T08:18:53.560Z,64.90
2019-05-09T08:23:10.092Z,67.00
2019-05-09T08:27:30.162Z,65.50
2019-05-09T08:31:46.410Z,60.40
2019-05-09T08:36:03.897Z,57.20
2019-05-09T08:40:21.456Z,58.20
2019-05-09T08:44:42.008Z,56.20
2019-05-09T08:48:57.756Z,56.90
2019-05-09T08:53:14.348Z,57.80
2019-05-09T08:57:30.910Z,55.90
2019-05-09T09:02:10.682Z,56.70
2019-05-09T09:06:08.095Z,57.40
2019-05-09T09:10:24.550Z,57.20
2019-05-09T09:14:41.053Z,57.10
2019-05-09T09:18:58.567Z,55.50
2019-05-09T09:23:17.868Z,57.30
2019-05-09T09:27:34.086Z,56.80
2019-05-09T09:31:50.606Z,56.90
2019-05-09T09:36:08.737Z,57.80
2019-05-09T09:40:27.695Z,56.50
2019-05-09T09:44:43.722Z,52.70
2019-05-09T09:49:00.242Z,53.50
2019-05-09T09:53:18.438Z,53.00
2019-05-09T09:57:37.633Z,53.20
2019-05-09T10:02:01.554Z,52.90
2019-05-09T10:06:18.188Z,51.60
2019-05-09T10:10:36.105Z,51.60
2019-05-09T10:15:12.183Z,50.30
2019-05-09T10:19:48.171Z,49.90
2019-05-09T10:24:05.297Z,47.20
2019-05-09T10:28:21.977Z,49.00
2019-05-09T10:32:38.654Z,48.90
2019-05-09T10:36:55.283Z,49.70
2019-05-09T10:41:11.821Z,49.70
2019-05-09T10:45:33.453Z,47.00
2019-05-09T10:49:50.361Z,47.20
2019-05-09T10:54:08.151Z,45.20
2019-05-09T10:58:25.370Z,45.50
2019-05-09T11:02:41.846Z,42.40
2019-05-09T11:06:58.752Z,43.20
2019-05-09T11:11:17.845Z,44.00
2019-05-09T11:15:34.434Z,43.20
2019-05-09T11:19:51.063Z,42.40
2019-05-09T11:24:08.333Z,43.70
2019-05-09T11:28:25.244Z,45.70
2019-05-09T11:32:41.836Z,46.60
2019-05-09T11:36:58.368Z,45.50
2019-05-09T11:41:18.822Z,45.00
2019-05-09T11:45:33.845Z,43.40
2019-05-09T11:49:50.394Z,41.90
2019-05-09T11:54:09.184Z,41.70
2019-05-09T11:58:27.896Z,43.90
2019-05-09T12:02:44.212Z,43.50
2019-05-09T12:07:01.141Z,40.10
2019-05-09T12:11:18.702Z,38.00
2019-05-09T12:15:38.766Z,40.30
2019-05-09T12:20:09.024Z,41.80
2019-05-09T12:24:12.743Z,36.70
2019-05-09T12:28:29.261Z,37.20
2019-05-09T12:32:45.745Z,29.60
2019-05-09T12:37:02.502Z,30.50
2019-05-09T12:41:19.383Z,29.60
2019-05-09T12:45:38.557Z,28.40
2019-05-09T12:49:54.592Z,29.60
2019-05-09T12:54:11.198Z,29.70
2019-05-09T12:58:28.969Z,28.40
2019-05-09T13:02:45.489Z,25.50
2019-05-09T13:07:02.654Z,26.80
2019-05-09T13:11:20.151Z,29.10
2019-05-09T13:15:40.947Z,27.00
2019-05-09T13:19:58.570Z,26.40
2019-05-09T13:24:19.463Z,24.00
2019-05-09T13:28:34.104Z,24.00
2019-05-09T13:32:50.667Z,26.10
2019-05-09T13:37:09.152Z,25.10
2019-05-09T13:41:26.016Z,23.20
2019-05-09T13:45:42.489Z,24.30
2019-05-09T13:49:59.325Z,26.00
2019-05-09T13:54:18.466Z,24.40
2019-05-09T13:58:35.040Z,23.20
2019-05-09T14:02:54.900Z,27.20
2019-05-09T14:07:11.569Z,31.80
2019-05-09T14:11:29.126Z,36.00
2019-05-09T14:15:48.693Z,36.60
2019-05-09T14:20:08.830Z,32.00
2019-05-09T14:24:24.919Z,33.80
2019-05-09T14:28:41.411Z,34.90
2019-05-09T14:33:00.277Z,33.60
2019-05-09T14:37:18.005Z,31.80
2019-05-09T14:41:34.839Z,33.10
2019-05-09T14:45:51.465Z,34.90
2019-05-09T14:50:09.988Z,30.60
2019-05-09T14:54:28.921Z,31.10
2019-05-09T14:58:45.713Z,33.80
2019-05-09T15:03:02.376Z,35.10
2019-05-09T15:07:19.512Z,35.50
2019-05-09T15:11:39.487Z,36.60
2019-05-09T15:15:57.732Z,36.50
2019-05-09T15:20:14.351Z,35.60
2019-05-09T15:24:30.860Z,38.50
2019-05-09T15:28:48.375Z,40.60
2019-05-09T15:33:05.120Z,42.50
2019-05-09T15:37:21.640Z,44.10
2019-05-09T15:41:38.696Z,44.60
2019-05-09T15:46:08.353Z,45.40
2019-05-09T15:50:24.581Z,46.40
2019-05-09T15:54:41.082Z,48.60
2019-05-09T15:58:58.117Z,48.30
2019-05-09T16:03:14.842Z,46.80
2019-05-09T16:07:31.366Z,45.40
2019-05-09T16:11:48.542Z,45.60
2019-05-09T16:16:05.589Z,46.90
2019-05-09T16:20:36.273Z,47.60
2019-05-09T16:24:40.639Z,48.30
2019-05-09T16:28:58.524Z,49.10
2019-05-09T16:33:15.086Z,49.60
2019-05-09T16:37:52.803Z,50.30
2019-05-09T16:41:50.262Z,51.00
2019-05-09T16:46:07.578Z,51.90
2019-05-09T16:50:24.707Z,51.60
2019-05-09T16:54:43.477Z,52.20
2019-05-09T16:58:59.978Z,53.20
2019-05-09T17:03:18.712Z,53.70
2019-05-09T17:07:35.247Z,54.00
2019-05-09T17:11:51.900Z,54.40
2019-05-09T17:16:08.790Z,54.90
2019-05-09T17:20:27.844Z,55.70
2019-05-09T17:24:45.455Z,56.90
2019-05-09T17:29:01.954Z,57.30
2019-05-09T17:33:19.191Z,58.10
2019-05-09T17:37:37.942Z,58.40
2019-05-09T17:41:54.690Z,59.40
2019-05-09T17:46:11.618Z,59.10
2019-05-09T17:50:28.732Z,58.50
2019-05-09T17:54:48.506Z,58.70
2019-05-09T17:59:08.323Z,58.90
2019-05-09T18:03:25.218Z,59.60
2019-05-09T18:07:42.279Z,59.80
2019-05-09T18:11:58.801Z,60.70
2019-05-09T18:16:18.747Z,61.00
2019-05-09T18:20:34.803Z,62.70
2019-05-09T18:24:51.317Z,64.50
2019-05-09T18:29:09.385Z,62.80
2019-05-09T18:33:38.012Z,62.40
2019-05-09T18:37:54.675Z,63.40
2019-05-09T18:42:14.558Z,66.20
2019-05-09T18:46:31.101Z,69.90
2019-05-09T18:50:50.745Z,75.30
2019-05-09T18:55:08.937Z,79.10
2019-05-09T18:59:30.811Z,82.00
2019-05-09T19:03:48.485Z,84.90
2019-05-09T19:08:05.036Z,86.80
2019-05-09T19:12:21.670Z,88.40
2019-05-09T19:16:51.807Z,88.30
2019-05-09T19:21:22.425Z,89.40
2019-05-09T19:25:41.118Z,90.00
2019-05-09T19:29:57.607Z,90.00
2019-05-09T19:34:15.537Z,91.20
2019-05-09T19:38:33.938Z,91.70
2019-05-09T19:42:50.848Z,91.60
2019-05-09T19:47:09.753Z,92.30
2019-05-09T19:51:27.476Z,92.90
2019-05-09T19:55:47.828Z,93.10
2019-05-09T20:00:09.289Z,93.10
2019-05-09T20:04:25.936Z,93.30
2019-05-09T20:08:44.318Z,93.40
2019-05-09T20:13:08.646Z,93.80
2019-05-09T20:17:25.311Z,93.70
2019-05-09T20:21:41.810Z,93.80
2019-05-09T20:25:58.588Z,93.50
2019-05-09T20:30:15.335Z,93.80
2019-05-09T20:34:32.091Z,94.40
2019-05-09T20:38:48.684Z,94.20
2019-05-09T20:43:05.286Z,94.30
2019-05-09T20:47:22.104Z,94.60
2019-05-09T20:51:38.660Z,94.90
2019-05-09T20:55:55.517Z,94.80
2019-05-09T21:00:12.398Z,94.70
2019-05-09T21:04:28.840Z,94.20
2019-05-09T21:08:45.294Z,94.30
2019-05-09T21:13:01.822Z,94.40
2019-05-09T21:17:18.385Z,95.00
2019-05-09T21:21:34.931Z,96.10
2019-05-09T21:25:51.459Z,96.80
2019-05-09T21:30:08.512Z,96.90
2019-05-09T21:34:25.214Z,97.00
2019-05-09T21:38:41.753Z,97.50
2019-05-09T21:42:58.599Z,97.50
2019-05-09T21:47:15.138Z,97.70
2019-05-09T21:51:31.827Z,97.80
2019-05-09T21:55:48.312Z,98.00
2019-05-09T22:00:13.201Z,98.20
2019-05-09T22:04:30.010Z,98.10
2019-05-09T22:08:46.602Z,98.50
2019-05-09T22:13:03.217Z,98.50
2019-05-09T22:17:21.683Z,98.60
2019-05-09T22:21:38.454Z,98.50
2019-05-09T22:25:55.008Z,98.60
2019-05-09T22:30:14.036Z,98.60
2019-05-09T22:34:30.488Z,98.50
2019-05-09T22:38:46.909Z,98.50
2019-05-09T22:43:03.824Z,98.90
2019-05-09T22:47:20.279Z,99.40
2019-05-09T22:51:36.808Z,99.90
2019-05-09T22:55:53.336Z,99.90
2019-05-09T23:00:10.168Z,99.90
2019-05-09T23:04:26.591Z,99.90
2019-05-09T23:08:43.278Z,99.90
2019-05-09T23:12:59.730Z,99.90
2019-05-09T23:17:16.506Z,99.90
2019-05-09T23:21:32.951Z,99.90
2019-05-09T23:25:49.371Z,99.90
2019-05-09T23:30:06.803Z,99.90
2019-05-09T23:34:23.448Z,99.90
2019-05-09T23:38:58.186Z,99.90
2019-05-09T23:43:14.642Z,99.90
2019-05-09T23:47:31.090Z,99.90
2019-05-09T23:51:48.634Z,99.90
2019-05-09T23:56:23.734Z,99.90
